Broken Arrow, Oklahoma
Current Conditions -  °F | °C
As of 1:53 PM on Sunday 23 Nov 2014 (Local Time) from KRVS Reporting Station
Broken Clouds Broken Clouds  
Wind Chill: 66°   Ceiling: 4500
Heat Index: 66°   Visibility: 10mi
Dew Point: 54°   Wind: 6mph
Humidity: 65%   Direction: 220°SW
Pressure: 29.29"   Gusts: NA
Location:  36.05°N, 95.79°W
Report Text: KRVS 231953Z 22005KT 10SM BKN045 BKN055 19/12 A2929 RMK AO2 SLP924 T01890122
Loading
Personal Weather Stations






























Interactive Weather Map New forecast layout! Learn more

10-Day Weather Forecast

Advertisements
Track Severe Weather on mobile